sensor_id;sensor_type;location;lat;lon;timestamp;P1;durP1;ratioP1;P2;durP2;ratioP2
29314;SDS011;16320;53.954;9.506;2023-03-01T00:01:08;46.70;;;21.23;;
29314;SDS011;16320;53.954;9.506;2023-03-01T00:04:16;43.20;;;20.83;;
29314;SDS011;16320;53.954;9.506;2023-03-01T00:07:20;45.92;;;20.73;;
29314;SDS011;16320;53.954;9.506;2023-03-01T00:10:24;42.67;;;20.20;;
29314;SDS011;16320;53.954;9.506;2023-03-01T00:13:30;49.13;;;20.98;;
29314;SDS011;16320;53.954;9.506;2023-03-01T00:16:36;44.00;;;21.67;;
29314;SDS011;16320;53.954;9.506;2023-03-01T00:19:43;53.70;;;24.77;;
29314;SDS011;16320;53.954;9.506;2023-03-01T00:22:48;46.03;;;22.77;;
29314;SDS011;16320;53.954;9.506;2023-03-01T00:25:52;54.58;;;22.95;;
29314;SDS011;16320;53.954;9.506;2023-03-01T00:28:57;51.00;;;22.52;;
29314;SDS011;16320;53.954;9.506;2023-03-01T00:32:03;67.95;;;24.05;;
29314;SDS011;16320;53.954;9.506;2023-03-01T00:35:08;48.05;;;22.52;;
29314;SDS011;16320;53.954;9.506;2023-03-01T00:38:12;45.22;;;22.55;;
29314;SDS011;16320;53.954;9.506;2023-03-01T00:41:18;53.88;;;22.40;;
29314;SDS011;16320;53.954;9.506;2023-03-01T00:44:24;50.75;;;23.80;;
29314;SDS011;16320;53.954;9.506;2023-03-01T00:47:28;53.30;;;23.48;;
29314;SDS011;16320;53.954;9.506;2023-03-01T00:50:33;47.47;;;24.05;;
29314;SDS011;16320;53.954;9.506;2023-03-01T00:53:37;63.25;;;27.58;;
29314;SDS011;16320;53.954;9.506;2023-03-01T00:56:43;64.05;;;26.60;;
29314;SDS011;16320;53.954;9.506;2023-03-01T00:59:47;61.08;;;24.85;;
29314;SDS011;16320;53.954;9.506;2023-03-01T01:02:51;53.22;;;25.13;;
29314;SDS011;16320;53.954;9.506;2023-03-01T01:05:55;48.60;;;23.75;;
29314;SDS011;16320;53.954;9.506;2023-03-01T01:09:03;57.00;;;26.35;;
29314;SDS011;16320;53.954;9.506;2023-03-01T01:12:09;48.88;;;24.25;;
29314;SDS011;16320;53.954;9.506;2023-03-01T01:15:14;54.22;;;24.52;;
29314;SDS011;16320;53.954;9.506;2023-03-01T01:18:20;53.95;;;25.42;;
29314;SDS011;16320;53.954;9.506;2023-03-01T01:21:25;55.50;;;25.55;;
29314;SDS011;16320;53.954;9.506;2023-03-01T01:24:31;55.25;;;25.25;;
29314;SDS011;16320;53.954;9.506;2023-03-01T01:27:35;56.78;;;25.40;;
29314;SDS011;16320;53.954;9.506;2023-03-01T01:30:40;57.20;;;25.38;;
29314;SDS011;16320;53.954;9.506;2023-03-01T01:33:44;62.65;;;25.27;;
29314;SDS011;16320;53.954;9.506;2023-03-01T01:36:53;59.67;;;27.15;;
29314;SDS011;16320;53.954;9.506;2023-03-01T01:39:58;66.57;;;27.80;;
29314;SDS011;16320;53.954;9.506;2023-03-01T01:43:04;93.38;;;29.30;;
29314;SDS011;16320;53.954;9.506;2023-03-01T01:46:27;205.90;;;34.03;;
29314;SDS011;16320;53.954;9.506;2023-03-01T01:49:38;258.42;;;34.58;;
29314;SDS011;16320;53.954;9.506;2023-03-01T01:52:49;264.75;;;36.42;;
29314;SDS011;16320;53.954;9.506;2023-03-01T01:55:57;225.57;;;36.67;;
29314;SDS011;16320;53.954;9.506;2023-03-01T01:59:03;162.15;;;36.95;;
29314;SDS011;16320;53.954;9.506;2023-03-01T02:02:08;144.45;;;35.17;;
29314;SDS011;16320;53.954;9.506;2023-03-01T02:05:25;105.45;;;30.55;;
29314;SDS011;16320;53.954;9.506;2023-03-01T02:08:59;107.60;;;30.75;;
29314;SDS011;16320;53.954;9.506;2023-03-01T02:12:08;115.32;;;28.38;;
29314;SDS011;16320;53.954;9.506;2023-03-01T02:15:13;85.35;;;27.80;;
29314;SDS011;16320;53.954;9.506;2023-03-01T02:18:18;113.82;;;29.52;;
29314;SDS011;16320;53.954;9.506;2023-03-01T02:28:43;96.63;;;27.92;;
29314;SDS011;16320;53.954;9.506;2023-03-01T02:31:49;82.38;;;29.58;;
29314;SDS011;16320;53.954;9.506;2023-03-01T02:34:55;106.95;;;28.58;;
29314;SDS011;16320;53.954;9.506;2023-03-01T02:38:00;141.70;;;29.75;;
29314;SDS011;16320;53.954;9.506;2023-03-01T02:41:07;115.22;;;30.02;;
29314;SDS011;16320;53.954;9.506;2023-03-01T02:44:14;132.43;;;31.63;;
29314;SDS011;16320;53.954;9.506;2023-03-01T02:47:19;132.23;;;30.17;;
29314;SDS011;16320;53.954;9.506;2023-03-01T02:57:02;127.30;;;30.70;;
29314;SDS011;16320;53.954;9.506;2023-03-01T03:00:08;94.50;;;28.60;;
29314;SDS011;16320;53.954;9.506;2023-03-01T03:03:22;80.57;;;27.83;;
29314;SDS011;16320;53.954;9.506;2023-03-01T03:06:27;91.75;;;28.60;;
29314;SDS011;16320;53.954;9.506;2023-03-01T03:09:31;108.80;;;28.33;;
29314;SDS011;16320;53.954;9.506;2023-03-01T03:12:36;80.55;;;26.23;;
29314;SDS011;16320;53.954;9.506;2023-03-01T03:15:41;126.13;;;22.70;;
29314;SDS011;16320;53.954;9.506;2023-03-01T03:18:47;144.65;;;20.35;;
29314;SDS011;16320;53.954;9.506;2023-03-01T03:21:51;104.90;;;18.17;;
29314;SDS011;16320;53.954;9.506;2023-03-01T03:24:55;121.13;;;20.25;;
29314;SDS011;16320;53.954;9.506;2023-03-01T03:28:00;145.38;;;25.08;;
29314;SDS011;16320;53.954;9.506;2023-03-01T03:31:05;119.90;;;21.17;;
29314;SDS011;16320;53.954;9.506;2023-03-01T03:34:11;123.68;;;23.48;;
29314;SDS011;16320;53.954;9.506;2023-03-01T03:37:21;167.82;;;23.80;;
29314;SDS011;16320;53.954;9.506;2023-03-01T03:40:45;138.20;;;22.85;;
29314;SDS011;16320;53.954;9.506;2023-03-01T03:43:50;108.22;;;24.38;;
29314;SDS011;16320;53.954;9.506;2023-03-01T03:46:54;139.15;;;24.58;;
29314;SDS011;16320;53.954;9.506;2023-03-01T03:49:59;139.80;;;24.92;;
29314;SDS011;16320;53.954;9.506;2023-03-01T03:53:04;108.78;;;26.17;;
29314;SDS011;16320;53.954;9.506;2023-03-01T03:56:15;115.18;;;26.70;;
29314;SDS011;16320;53.954;9.506;2023-03-01T03:59:19;135.00;;;31.25;;
29314;SDS011;16320;53.954;9.506;2023-03-01T04:02:23;143.05;;;26.45;;
29314;SDS011;16320;53.954;9.506;2023-03-01T04:05:28;71.40;;;20.23;;
29314;SDS011;16320;53.954;9.506;2023-03-01T04:08:33;92.88;;;22.77;;
29314;SDS011;16320;53.954;9.506;2023-03-01T04:11:37;86.85;;;24.08;;
29314;SDS011;16320;53.954;9.506;2023-03-01T04:14:42;81.10;;;22.33;;
29314;SDS011;16320;53.954;9.506;2023-03-01T04:17:46;70.47;;;21.38;;
29314;SDS011;16320;53.954;9.506;2023-03-01T04:20:52;95.13;;;21.92;;
29314;SDS011;16320;53.954;9.506;2023-03-01T04:23:59;64.55;;;21.90;;
29314;SDS011;16320;53.954;9.506;2023-03-01T04:27:03;80.40;;;21.60;;
29314;SDS011;16320;53.954;9.506;2023-03-01T04:30:08;65.82;;;19.15;;
29314;SDS011;16320;53.954;9.506;2023-03-01T04:33:14;76.03;;;20.23;;
29314;SDS011;16320;53.954;9.506;2023-03-01T04:36:18;81.80;;;19.58;;
29314;SDS011;16320;53.954;9.506;2023-03-01T04:39:26;53.50;;;17.90;;
29314;SDS011;16320;53.954;9.506;2023-03-01T04:42:30;47.65;;;17.20;;
29314;SDS011;16320;53.954;9.506;2023-03-01T04:45:35;38.15;;;16.33;;
29314;SDS011;16320;53.954;9.506;2023-03-01T04:48:40;35.65;;;15.90;;
29314;SDS011;16320;53.954;9.506;2023-03-01T04:51:46;28.70;;;12.27;;
29314;SDS011;16320;53.954;9.506;2023-03-01T04:54:50;33.72;;;12.82;;
29314;SDS011;16320;53.954;9.506;2023-03-01T04:57:55;22.42;;;8.95;;
29314;SDS011;16320;53.954;9.506;2023-03-01T05:00:59;16.73;;;8.35;;
29314;SDS011;16320;53.954;9.506;2023-03-01T05:04:04;25.38;;;8.65;;
29314;SDS011;16320;53.954;9.506;2023-03-01T05:07:09;21.08;;;8.43;;
29314;SDS011;16320;53.954;9.506;2023-03-01T05:10:13;20.17;;;7.82;;
29314;SDS011;16320;53.954;9.506;2023-03-01T05:13:17;21.98;;;6.30;;
29314;SDS011;16320;53.954;9.506;2023-03-01T05:16:24;20.77;;;6.35;;
29314;SDS011;16320;53.954;9.506;2023-03-01T05:19:29;17.95;;;5.65;;
29314;SDS011;16320;53.954;9.506;2023-03-01T05:22:35;17.20;;;5.68;;
29314;SDS011;16320;53.954;9.506;2023-03-01T05:25:39;25.58;;;5.20;;
29314;SDS011;16320;53.954;9.506;2023-03-01T05:28:44;21.15;;;4.75;;
29314;SDS011;16320;53.954;9.506;2023-03-01T05:31:48;35.53;;;5.68;;
29314;SDS011;16320;53.954;9.506;2023-03-01T05:34:52;26.60;;;6.80;;
29314;SDS011;16320;53.954;9.506;2023-03-01T05:37:58;34.30;;;6.18;;
29314;SDS011;16320;53.954;9.506;2023-03-01T05:41:03;46.97;;;6.95;;
29314;SDS011;16320;53.954;9.506;2023-03-01T05:44:07;43.33;;;7.68;;
29314;SDS011;16320;53.954;9.506;2023-03-01T05:47:12;32.20;;;8.15;;
29314;SDS011;16320;53.954;9.506;2023-03-01T05:50:17;34.42;;;8.60;;
29314;SDS011;16320;53.954;9.506;2023-03-01T05:56:35;45.60;;;7.82;;
29314;SDS011;16320;53.954;9.506;2023-03-01T05:59:40;24.67;;;6.53;;
29314;SDS011;16320;53.954;9.506;2023-03-01T06:02:45;27.65;;;6.22;;
29314;SDS011;16320;53.954;9.506;2023-03-01T06:05:49;32.28;;;6.78;;
29314;SDS011;16320;53.954;9.506;2023-03-01T06:08:58;22.30;;;6.20;;
29314;SDS011;16320;53.954;9.506;2023-03-01T06:12:03;33.33;;;5.65;;
29314;SDS011;16320;53.954;9.506;2023-03-01T06:15:09;39.90;;;5.78;;
29314;SDS011;16320;53.954;9.506;2023-03-01T06:18:16;23.25;;;5.25;;
29314;SDS011;16320;53.954;9.506;2023-03-01T06:21:20;48.00;;;6.32;;
29314;SDS011;16320;53.954;9.506;2023-03-01T06:24:25;45.47;;;6.45;;
29314;SDS011;16320;53.954;9.506;2023-03-01T06:27:29;27.60;;;5.93;;
29314;SDS011;16320;53.954;9.506;2023-03-01T06:30:33;81.22;;;6.40;;
29314;SDS011;16320;53.954;9.506;2023-03-01T06:33:39;25.63;;;4.93;;
29314;SDS011;16320;53.954;9.506;2023-03-01T06:36:43;55.15;;;7.35;;
29314;SDS011;16320;53.954;9.506;2023-03-01T06:39:47;62.25;;;6.72;;
29314;SDS011;16320;53.954;9.506;2023-03-01T06:42:52;42.10;;;6.30;;
29314;SDS011;16320;53.954;9.506;2023-03-01T06:45:56;45.55;;;6.57;;
29314;SDS011;16320;53.954;9.506;2023-03-01T06:49:00;58.33;;;7.15;;
29314;SDS011;16320;53.954;9.506;2023-03-01T06:52:08;53.40;;;6.70;;
29314;SDS011;16320;53.954;9.506;2023-03-01T06:55:12;89.53;;;11.65;;
29314;SDS011;16320;53.954;9.506;2023-03-01T06:58:17;63.78;;;12.35;;
29314;SDS011;16320;53.954;9.506;2023-03-01T07:01:21;55.30;;;8.20;;
29314;SDS011;16320;53.954;9.506;2023-03-01T07:04:25;41.30;;;6.88;;
29314;SDS011;16320;53.954;9.506;2023-03-01T07:07:32;49.92;;;8.80;;
29314;SDS011;16320;53.954;9.506;2023-03-01T07:10:36;58.22;;;9.85;;
29314;SDS011;16320;53.954;9.506;2023-03-01T07:13:41;67.18;;;10.18;;
29314;SDS011;16320;53.954;9.506;2023-03-01T07:16:45;80.38;;;9.00;;
29314;SDS011;16320;53.954;9.506;2023-03-01T07:19:50;57.13;;;9.35;;
29314;SDS011;16320;53.954;9.506;2023-03-01T07:22:55;36.92;;;7.85;;
29314;SDS011;16320;53.954;9.506;2023-03-01T07:26:02;46.55;;;8.43;;
29314;SDS011;16320;53.954;9.506;2023-03-01T07:29:07;40.13;;;7.57;;
29314;SDS011;16320;53.954;9.506;2023-03-01T07:32:17;39.25;;;11.43;;
29314;SDS011;16320;53.954;9.506;2023-03-01T07:35:23;55.17;;;15.65;;
29314;SDS011;16320;53.954;9.506;2023-03-01T07:38:30;74.68;;;13.60;;
29314;SDS011;16320;53.954;9.506;2023-03-01T07:41:35;60.60;;;12.52;;
29314;SDS011;16320;53.954;9.506;2023-03-01T07:44:40;56.67;;;10.23;;
29314;SDS011;16320;53.954;9.506;2023-03-01T07:47:50;55.80;;;11.00;;
29314;SDS011;16320;53.954;9.506;2023-03-01T07:50:59;61.10;;;12.07;;
29314;SDS011;16320;53.954;9.506;2023-03-01T07:54:06;64.95;;;10.15;;
29314;SDS011;16320;53.954;9.506;2023-03-01T07:57:10;51.38;;;13.20;;
29314;SDS011;16320;53.954;9.506;2023-03-01T08:00:15;62.38;;;11.75;;
29314;SDS011;16320;53.954;9.506;2023-03-01T08:03:19;50.53;;;13.82;;
29314;SDS011;16320;53.954;9.506;2023-03-01T08:06:24;54.78;;;13.20;;
29314;SDS011;16320;53.954;9.506;2023-03-01T08:09:28;63.08;;;12.15;;
29314;SDS011;16320;53.954;9.506;2023-03-01T08:12:33;38.00;;;11.13;;
29314;SDS011;16320;53.954;9.506;2023-03-01T08:15:37;77.60;;;14.13;;
29314;SDS011;16320;53.954;9.506;2023-03-01T08:18:42;98.95;;;14.35;;
29314;SDS011;16320;53.954;9.506;2023-03-01T08:21:47;63.63;;;14.43;;
29314;SDS011;16320;53.954;9.506;2023-03-01T08:24:51;74.43;;;13.18;;
29314;SDS011;16320;53.954;9.506;2023-03-01T08:27:56;76.18;;;13.35;;
29314;SDS011;16320;53.954;9.506;2023-03-01T08:31:01;63.83;;;13.63;;
29314;SDS011;16320;53.954;9.506;2023-03-01T08:34:08;100.78;;;16.17;;
29314;SDS011;16320;53.954;9.506;2023-03-01T08:37:16;82.07;;;17.20;;
29314;SDS011;16320;53.954;9.506;2023-03-01T08:40:20;113.05;;;18.25;;
29314;SDS011;16320;53.954;9.506;2023-03-01T08:43:24;71.47;;;16.30;;
29314;SDS011;16320;53.954;9.506;2023-03-01T08:46:39;94.72;;;17.83;;
29314;SDS011;16320;53.954;9.506;2023-03-01T08:49:46;102.32;;;17.10;;
29314;SDS011;16320;53.954;9.506;2023-03-01T08:52:52;68.38;;;17.95;;
29314;SDS011;16320;53.954;9.506;2023-03-01T08:55:59;107.50;;;21.73;;
29314;SDS011;16320;53.954;9.506;2023-03-01T08:59:10;75.72;;;23.63;;
29314;SDS011;16320;53.954;9.506;2023-03-01T09:02:17;102.40;;;20.67;;
29314;SDS011;16320;53.954;9.506;2023-03-01T09:05:22;67.22;;;20.65;;
29314;SDS011;16320;53.954;9.506;2023-03-01T09:08:27;110.85;;;22.83;;
29314;SDS011;16320;53.954;9.506;2023-03-01T09:11:32;78.85;;;22.05;;
29314;SDS011;16320;53.954;9.506;2023-03-01T09:14:37;102.38;;;21.92;;
29314;SDS011;16320;53.954;9.506;2023-03-01T09:17:42;121.75;;;22.48;;
29314;SDS011;16320;53.954;9.506;2023-03-01T09:20:47;84.32;;;22.75;;
29314;SDS011;16320;53.954;9.506;2023-03-01T09:23:51;75.75;;;22.27;;
29314;SDS011;16320;53.954;9.506;2023-03-01T09:26:56;69.32;;;25.00;;
29314;SDS011;16320;53.954;9.506;2023-03-01T09:30:02;109.57;;;27.08;;
29314;SDS011;16320;53.954;9.506;2023-03-01T09:33:07;134.05;;;23.98;;
29314;SDS011;16320;53.954;9.506;2023-03-01T09:36:19;131.93;;;30.98;;
29314;SDS011;16320;53.954;9.506;2023-03-01T09:39:26;131.27;;;31.70;;
29314;SDS011;16320;53.954;9.506;2023-03-01T09:42:34;114.93;;;29.73;;
29314;SDS011;16320;53.954;9.506;2023-03-01T09:45:49;90.07;;;28.95;;
29314;SDS011;16320;53.954;9.506;2023-03-01T09:48:59;111.45;;;29.23;;
29314;SDS011;16320;53.954;9.506;2023-03-01T09:52:17;95.10;;;28.85;;
29314;SDS011;16320;53.954;9.506;2023-03-01T10:03:25;72.55;;;24.85;;
29314;SDS011;16320;53.954;9.506;2023-03-01T10:10:14;78.65;;;26.42;;
29314;SDS011;16320;53.954;9.506;2023-03-01T10:13:49;64.90;;;23.23;;
29314;SDS011;16320;53.954;9.506;2023-03-01T10:17:55;67.25;;;23.52;;
29314;SDS011;16320;53.954;9.506;2023-03-01T10:24:23;75.90;;;22.35;;
29314;SDS011;16320;53.954;9.506;2023-03-01T10:27:46;60.63;;;24.88;;
29314;SDS011;16320;53.954;9.506;2023-03-01T10:30:57;55.85;;;22.17;;
29314;SDS011;16320;53.954;9.506;2023-03-01T10:34:10;53.47;;;21.83;;
29314;SDS011;16320;53.954;9.506;2023-03-01T10:37:19;62.45;;;23.58;;
29314;SDS011;16320;53.954;9.506;2023-03-01T10:40:26;53.22;;;22.95;;
29314;SDS011;16320;53.954;9.506;2023-03-01T10:43:50;59.22;;;23.40;;
29314;SDS011;16320;53.954;9.506;2023-03-01T10:47:01;52.40;;;21.15;;
29314;SDS011;16320;53.954;9.506;2023-03-01T10:50:06;51.72;;;21.35;;
29314;SDS011;16320;53.954;9.506;2023-03-01T10:53:40;64.20;;;22.77;;
29314;SDS011;16320;53.954;9.506;2023-03-01T10:56:52;64.60;;;25.60;;
29314;SDS011;16320;53.954;9.506;2023-03-01T11:03:34;75.72;;;29.05;;
29314;SDS011;16320;53.954;9.506;2023-03-01T11:06:41;83.30;;;31.73;;
29314;SDS011;16320;53.954;9.506;2023-03-01T11:09:46;92.13;;;32.38;;
29314;SDS011;16320;53.954;9.506;2023-03-01T11:12:51;95.40;;;33.40;;
29314;SDS011;16320;53.954;9.506;2023-03-01T11:16:03;83.35;;;32.05;;
29314;SDS011;16320;53.954;9.506;2023-03-01T11:19:14;87.15;;;31.30;;
29314;SDS011;16320;53.954;9.506;2023-03-01T11:22:23;79.15;;;28.52;;
29314;SDS011;16320;53.954;9.506;2023-03-01T11:25:30;75.60;;;29.20;;
29314;SDS011;16320;53.954;9.506;2023-03-01T11:28:42;62.20;;;22.80;;
29314;SDS011;16320;53.954;9.506;2023-03-01T11:31:50;85.07;;;29.00;;
29314;SDS011;16320;53.954;9.506;2023-03-01T11:35:05;77.60;;;28.65;;
29314;SDS011;16320;53.954;9.506;2023-03-01T11:38:32;68.72;;;26.27;;
29314;SDS011;16320;53.954;9.506;2023-03-01T11:41:40;71.38;;;25.70;;
29314;SDS011;16320;53.954;9.506;2023-03-01T11:44:49;72.35;;;26.63;;
29314;SDS011;16320;53.954;9.506;2023-03-01T11:48:05;72.77;;;25.50;;
29314;SDS011;16320;53.954;9.506;2023-03-01T11:51:49;68.43;;;25.23;;
29314;SDS011;16320;53.954;9.506;2023-03-01T12:02:23;51.38;;;20.70;;
29314;SDS011;16320;53.954;9.506;2023-03-01T12:16:07;39.22;;;17.88;;
29314;SDS011;16320;53.954;9.506;2023-03-01T12:19:54;31.85;;;15.00;;
29314;SDS011;16320;53.954;9.506;2023-03-01T12:26:37;22.48;;;11.43;;
29314;SDS011;16320;53.954;9.506;2023-03-01T12:33:45;20.15;;;9.25;;
29314;SDS011;16320;53.954;9.506;2023-03-01T12:40:45;13.20;;;8.68;;
29314;SDS011;16320;53.954;9.506;2023-03-01T12:51:26;12.23;;;7.93;;
29314;SDS011;16320;53.954;9.506;2023-03-01T12:54:33;10.05;;;7.05;;
29314;SDS011;16320;53.954;9.506;2023-03-01T12:57:42;11.23;;;7.18;;
29314;SDS011;16320;53.954;9.506;2023-03-01T13:01:10;9.77;;;7.03;;
29314;SDS011;16320;53.954;9.506;2023-03-01T13:11:53;11.40;;;7.55;;
29314;SDS011;16320;53.954;9.506;2023-03-01T13:14:57;12.10;;;7.93;;
29314;SDS011;16320;53.954;9.506;2023-03-01T13:18:03;11.40;;;7.25;;
29314;SDS011;16320;53.954;9.506;2023-03-01T13:21:30;12.32;;;7.32;;
29314;SDS011;16320;53.954;9.506;2023-03-01T13:24:41;11.90;;;7.05;;
29314;SDS011;16320;53.954;9.506;2023-03-01T13:27:46;10.50;;;5.90;;
29314;SDS011;16320;53.954;9.506;2023-03-01T13:30:51;8.55;;;6.38;;
29314;SDS011;16320;53.954;9.506;2023-03-01T13:33:55;8.90;;;6.03;;
29314;SDS011;16320;53.954;9.506;2023-03-01T13:37:09;7.80;;;5.53;;
29314;SDS011;16320;53.954;9.506;2023-03-01T13:43:28;7.65;;;5.35;;
29314;SDS011;16320;53.954;9.506;2023-03-01T13:46:35;8.32;;;5.20;;
29314;SDS011;16320;53.954;9.506;2023-03-01T13:49:47;8.27;;;4.90;;
29314;SDS011;16320;53.954;9.506;2023-03-01T13:53:10;5.93;;;4.28;;
29314;SDS011;16320;53.954;9.506;2023-03-01T13:56:30;7.13;;;4.35;;
29314;SDS011;16320;53.954;9.506;2023-03-01T13:59:46;6.63;;;4.25;;
29314;SDS011;16320;53.954;9.506;2023-03-01T14:06:19;5.78;;;4.05;;
29314;SDS011;16320;53.954;9.506;2023-03-01T14:09:27;4.82;;;3.58;;
29314;SDS011;16320;53.954;9.506;2023-03-01T14:16:03;4.82;;;3.70;;
29314;SDS011;16320;53.954;9.506;2023-03-01T14:19:53;5.35;;;3.60;;
29314;SDS011;16320;53.954;9.506;2023-03-01T14:23:02;5.00;;;4.03;;
29314;SDS011;16320;53.954;9.506;2023-03-01T14:26:20;5.75;;;4.47;;
29314;SDS011;16320;53.954;9.506;2023-03-01T14:29:37;5.65;;;4.20;;
29314;SDS011;16320;53.954;9.506;2023-03-01T14:32:43;5.53;;;4.20;;
29314;SDS011;16320;53.954;9.506;2023-03-01T14:36:10;6.05;;;4.05;;
29314;SDS011;16320;53.954;9.506;2023-03-01T14:39:17;6.03;;;4.50;;
29314;SDS011;16320;53.954;9.506;2023-03-01T14:42:28;5.10;;;4.15;;
29314;SDS011;16320;53.954;9.506;2023-03-01T14:45:39;6.60;;;4.95;;
29314;SDS011;16320;53.954;9.506;2023-03-01T14:48:51;5.15;;;4.18;;
29314;SDS011;16320;53.954;9.506;2023-03-01T14:52:07;7.68;;;4.05;;
29314;SDS011;16320;53.954;9.506;2023-03-01T14:55:32;4.20;;;3.47;;
29314;SDS011;16320;53.954;9.506;2023-03-01T14:58:40;4.80;;;4.10;;
29314;SDS011;16320;53.954;9.506;2023-03-01T15:01:44;4.93;;;4.03;;
29314;SDS011;16320;53.954;9.506;2023-03-01T15:04:52;5.38;;;3.90;;
29314;SDS011;16320;53.954;9.506;2023-03-01T15:08:01;4.82;;;3.72;;
29314;SDS011;16320;53.954;9.506;2023-03-01T15:17:55;4.85;;;4.07;;
29314;SDS011;16320;53.954;9.506;2023-03-01T15:21:15;4.50;;;3.70;;
29314;SDS011;16320;53.954;9.506;2023-03-01T15:24:32;6.05;;;4.53;;
29314;SDS011;16320;53.954;9.506;2023-03-01T15:27:39;4.03;;;3.60;;
29314;SDS011;16320;53.954;9.506;2023-03-01T15:30:55;7.13;;;4.47;;
29314;SDS011;16320;53.954;9.506;2023-03-01T15:34:19;5.15;;;4.10;;
29314;SDS011;16320;53.954;9.506;2023-03-01T15:40:52;5.38;;;4.63;;
29314;SDS011;16320;53.954;9.506;2023-03-01T15:44:00;9.50;;;6.85;;
29314;SDS011;16320;53.954;9.506;2023-03-01T15:47:47;10.38;;;6.80;;
29314;SDS011;16320;53.954;9.506;2023-03-01T15:51:19;8.77;;;7.00;;
29314;SDS011;16320;53.954;9.506;2023-03-01T15:54:33;11.98;;;7.40;;
29314;SDS011;16320;53.954;9.506;2023-03-01T15:57:38;10.65;;;7.30;;
29314;SDS011;16320;53.954;9.506;2023-03-01T16:00:43;10.68;;;7.85;;
29314;SDS011;16320;53.954;9.506;2023-03-01T16:04:03;14.35;;;9.07;;
29314;SDS011;16320;53.954;9.506;2023-03-01T16:07:08;13.00;;;8.82;;
29314;SDS011;16320;53.954;9.506;2023-03-01T16:10:13;14.20;;;8.75;;
29314;SDS011;16320;53.954;9.506;2023-03-01T16:13:17;11.55;;;7.90;;
29314;SDS011;16320;53.954;9.506;2023-03-01T16:16:23;11.93;;;8.65;;
29314;SDS011;16320;53.954;9.506;2023-03-01T16:19:28;13.68;;;9.07;;
29314;SDS011;16320;53.954;9.506;2023-03-01T16:22:32;11.32;;;8.77;;
29314;SDS011;16320;53.954;9.506;2023-03-01T16:25:36;10.13;;;7.50;;
29314;SDS011;16320;53.954;9.506;2023-03-01T16:28:41;9.80;;;6.97;;
29314;SDS011;16320;53.954;9.506;2023-03-01T16:31:47;10.80;;;7.32;;
29314;SDS011;16320;53.954;9.506;2023-03-01T16:34:51;10.05;;;7.72;;
29314;SDS011;16320;53.954;9.506;2023-03-01T16:37:56;11.13;;;8.02;;
29314;SDS011;16320;53.954;9.506;2023-03-01T16:41:00;11.45;;;8.55;;
29314;SDS011;16320;53.954;9.506;2023-03-01T16:44:05;11.30;;;7.80;;
29314;SDS011;16320;53.954;9.506;2023-03-01T16:47:09;16.35;;;9.30;;
29314;SDS011;16320;53.954;9.506;2023-03-01T16:50:13;12.95;;;9.18;;
29314;SDS011;16320;53.954;9.506;2023-03-01T16:53:18;18.90;;;11.05;;
29314;SDS011;16320;53.954;9.506;2023-03-01T16:56:23;19.70;;;12.13;;
29314;SDS011;16320;53.954;9.506;2023-03-01T16:59:43;23.35;;;13.65;;
29314;SDS011;16320;53.954;9.506;2023-03-01T17:02:49;26.15;;;15.35;;
29314;SDS011;16320;53.954;9.506;2023-03-01T17:05:53;28.58;;;16.33;;
29314;SDS011;16320;53.954;9.506;2023-03-01T17:08:58;26.08;;;15.43;;
29314;SDS011;16320;53.954;9.506;2023-03-01T17:12:04;26.17;;;15.98;;
29314;SDS011;16320;53.954;9.506;2023-03-01T17:15:08;21.40;;;14.43;;
29314;SDS011;16320;53.954;9.506;2023-03-01T17:18:15;27.08;;;15.63;;
29314;SDS011;16320;53.954;9.506;2023-03-01T17:21:19;25.88;;;14.23;;
29314;SDS011;16320;53.954;9.506;2023-03-01T17:24:24;24.60;;;14.77;;
29314;SDS011;16320;53.954;9.506;2023-03-01T17:27:28;25.00;;;14.45;;
29314;SDS011;16320;53.954;9.506;2023-03-01T17:30:33;24.30;;;14.38;;
29314;SDS011;16320;53.954;9.506;2023-03-01T17:33:39;25.20;;;16.15;;
29314;SDS011;16320;53.954;9.506;2023-03-01T17:36:43;26.10;;;15.55;;
29314;SDS011;16320;53.954;9.506;2023-03-01T17:39:49;22.85;;;14.77;;
29314;SDS011;16320;53.954;9.506;2023-03-01T17:42:53;20.17;;;13.68;;
29314;SDS011;16320;53.954;9.506;2023-03-01T17:45:58;18.95;;;13.45;;
29314;SDS011;16320;53.954;9.506;2023-03-01T17:49:02;29.55;;;14.90;;
29314;SDS011;16320;53.954;9.506;2023-03-01T17:52:06;23.80;;;14.15;;
29314;SDS011;16320;53.954;9.506;2023-03-01T17:55:11;21.02;;;14.45;;
29314;SDS011;16320;53.954;9.506;2023-03-01T17:58:15;26.77;;;15.63;;
29314;SDS011;16320;53.954;9.506;2023-03-01T18:01:25;30.00;;;14.85;;
29314;SDS011;16320;53.954;9.506;2023-03-01T18:04:29;24.02;;;14.88;;
29314;SDS011;16320;53.954;9.506;2023-03-01T18:07:35;23.83;;;15.35;;
29314;SDS011;16320;53.954;9.506;2023-03-01T18:10:40;25.58;;;15.75;;
29314;SDS011;16320;53.954;9.506;2023-03-01T18:13:44;35.90;;;20.65;;
29314;SDS011;16320;53.954;9.506;2023-03-01T18:16:50;31.95;;;19.88;;
29314;SDS011;16320;53.954;9.506;2023-03-01T18:19:54;38.22;;;24.80;;
29314;SDS011;16320;53.954;9.506;2023-03-01T18:23:00;32.67;;;21.52;;
29314;SDS011;16320;53.954;9.506;2023-03-01T18:26:06;29.20;;;18.08;;
29314;SDS011;16320;53.954;9.506;2023-03-01T18:29:14;32.13;;;19.42;;
29314;SDS011;16320;53.954;9.506;2023-03-01T18:32:18;30.75;;;18.40;;
29314;SDS011;16320;53.954;9.506;2023-03-01T18:35:23;37.38;;;21.15;;
29314;SDS011;16320;53.954;9.506;2023-03-01T18:38:27;32.60;;;20.27;;
29314;SDS011;16320;53.954;9.506;2023-03-01T18:41:34;35.70;;;19.73;;
29314;SDS011;16320;53.954;9.506;2023-03-01T18:44:39;37.78;;;21.27;;
29314;SDS011;16320;53.954;9.506;2023-03-01T18:47:43;99.53;;;21.83;;
29314;SDS011;16320;53.954;9.506;2023-03-01T18:50:48;44.42;;;22.95;;
29314;SDS011;16320;53.954;9.506;2023-03-01T18:53:52;40.40;;;20.50;;
29314;SDS011;16320;53.954;9.506;2023-03-01T18:56:57;39.83;;;20.38;;
29314;SDS011;16320;53.954;9.506;2023-03-01T19:00:02;39.60;;;20.95;;
29314;SDS011;16320;53.954;9.506;2023-03-01T19:03:08;38.80;;;21.02;;
29314;SDS011;16320;53.954;9.506;2023-03-01T19:06:14;43.40;;;21.75;;
29314;SDS011;16320;53.954;9.506;2023-03-01T19:09:19;40.88;;;21.20;;
29314;SDS011;16320;53.954;9.506;2023-03-01T19:12:23;37.95;;;20.40;;
29314;SDS011;16320;53.954;9.506;2023-03-01T19:15:27;37.83;;;21.73;;
29314;SDS011;16320;53.954;9.506;2023-03-01T19:18:32;48.20;;;22.00;;
29314;SDS011;16320;53.954;9.506;2023-03-01T19:21:38;48.00;;;23.63;;
29314;SDS011;16320;53.954;9.506;2023-03-01T19:24:43;57.38;;;26.48;;
29314;SDS011;16320;53.954;9.506;2023-03-01T19:27:48;73.82;;;31.52;;
29314;SDS011;16320;53.954;9.506;2023-03-01T19:30:56;46.00;;;22.45;;
29314;SDS011;16320;53.954;9.506;2023-03-01T19:34:07;44.05;;;22.52;;
29314;SDS011;16320;53.954;9.506;2023-03-01T19:37:15;49.60;;;23.45;;
29314;SDS011;16320;53.954;9.506;2023-03-01T19:40:20;45.92;;;21.60;;
29314;SDS011;16320;53.954;9.506;2023-03-01T19:43:24;44.15;;;22.65;;
29314;SDS011;16320;53.954;9.506;2023-03-01T19:46:29;48.58;;;23.05;;
29314;SDS011;16320;53.954;9.506;2023-03-01T19:49:33;43.63;;;21.38;;
29314;SDS011;16320;53.954;9.506;2023-03-01T19:52:40;45.28;;;20.50;;
29314;SDS011;16320;53.954;9.506;2023-03-01T19:55:45;47.92;;;22.58;;
29314;SDS011;16320;53.954;9.506;2023-03-01T19:58:50;43.00;;;21.83;;
29314;SDS011;16320;53.954;9.506;2023-03-01T20:02:05;44.50;;;22.42;;
29314;SDS011;16320;53.954;9.506;2023-03-01T20:05:09;48.38;;;23.13;;